sensor_id;sensor_type;location;lat;lon;timestamp;temperature;humidity
40059;SHT31;25763;49.972;8.568;2023-04-20T00:00:57;6.92;59.61
40059;SHT31;25763;49.972;8.568;2023-04-20T00:03:22;6.67;60.31
40059;SHT31;25763;49.972;8.568;2023-04-20T00:05:48;6.30;62.78
40059;SHT31;25763;49.972;8.568;2023-04-20T00:08:16;5.84;64.44
40059;SHT31;25763;49.972;8.568;2023-04-20T00:10:44;5.67;65.42
40059;SHT31;25763;49.972;8.568;2023-04-20T00:13:10;5.71;65.25
40059;SHT31;25763;49.972;8.568;2023-04-20T00:15:36;5.63;65.37
40059;SHT31;25763;49.972;8.568;2023-04-20T00:18:02;5.51;66.13
40059;SHT31;25763;49.972;8.568;2023-04-20T00:20:27;5.71;65.33
40059;SHT31;25763;49.972;8.568;2023-04-20T00:22:53;5.91;65.21
40059;SHT31;25763;49.972;8.568;2023-04-20T00:25:19;5.99;65.13
40059;SHT31;25763;49.972;8.568;2023-04-20T00:27:45;6.07;64.56
40059;SHT31;25763;49.972;8.568;2023-04-20T00:30:11;6.10;64.31
40059;SHT31;25763;49.972;8.568;2023-04-20T00:32:36;6.19;63.90
40059;SHT31;25763;49.972;8.568;2023-04-20T00:35:02;6.22;63.08
40059;SHT31;25763;49.972;8.568;2023-04-20T00:37:27;6.22;61.74
40059;SHT31;25763;49.972;8.568;2023-04-20T00:39:54;6.30;60.78
40059;SHT31;25763;49.972;8.568;2023-04-20T00:42:19;6.42;60.86
40059;SHT31;25763;49.972;8.568;2023-04-20T00:44:45;6.51;60.50
40059;SHT31;25763;49.972;8.568;2023-04-20T00:47:10;6.55;60.46
40059;SHT31;25763;49.972;8.568;2023-04-20T00:49:35;6.55;59.89
40059;SHT31;25763;49.972;8.568;2023-04-20T00:52:01;6.59;60.20
40059;SHT31;25763;49.972;8.568;2023-04-20T00:54:27;6.57;60.04
40059;SHT31;25763;49.972;8.568;2023-04-20T00:56:53;6.58;60.26
40059;SHT31;25763;49.972;8.568;2023-04-20T00:59:20;6.58;60.15
40059;SHT31;25763;49.972;8.568;2023-04-20T01:01:46;6.59;60.01
40059;SHT31;25763;49.972;8.568;2023-04-20T01:04:12;6.61;60.07
40059;SHT31;25763;49.972;8.568;2023-04-20T01:06:37;6.58;59.98
40059;SHT31;25763;49.972;8.568;2023-04-20T01:09:02;6.55;60.30
40059;SHT31;25763;49.972;8.568;2023-04-20T01:11:28;6.55;60.68
40059;SHT31;25763;49.972;8.568;2023-04-20T01:13:53;6.57;61.50
40059;SHT31;25763;49.972;8.568;2023-04-20T01:16:18;6.59;61.42
40059;SHT31;25763;49.972;8.568;2023-04-20T01:18:46;6.54;61.32
40059;SHT31;25763;49.972;8.568;2023-04-20T01:21:13;6.51;61.53
40059;SHT31;25763;49.972;8.568;2023-04-20T01:23:39;6.54;62.08
40059;SHT31;25763;49.972;8.568;2023-04-20T01:26:09;6.55;62.06
40059;SHT31;25763;49.972;8.568;2023-04-20T01:28:34;6.54;62.10
40059;SHT31;25763;49.972;8.568;2023-04-20T01:31:02;6.51;62.18
40059;SHT31;25763;49.972;8.568;2023-04-20T01:33:28;6.48;62.20
40059;SHT31;25763;49.972;8.568;2023-04-20T01:35:53;6.42;62.25
40059;SHT31;25763;49.972;8.568;2023-04-20T01:38:19;6.47;62.20
40059;SHT31;25763;49.972;8.568;2023-04-20T01:40:45;6.23;61.59
40059;SHT31;25763;49.972;8.568;2023-04-20T01:43:11;6.30;61.90
40059;SHT31;25763;49.972;8.568;2023-04-20T01:45:36;6.30;62.03
40059;SHT31;25763;49.972;8.568;2023-04-20T01:48:02;6.30;62.46
40059;SHT31;25763;49.972;8.568;2023-04-20T01:50:27;6.30;62.44
40059;SHT31;25763;49.972;8.568;2023-04-20T01:52:53;6.15;62.46
40059;SHT31;25763;49.972;8.568;2023-04-20T01:55:18;5.99;62.99
40059;SHT31;25763;49.972;8.568;2023-04-20T01:57:44;5.91;63.51
40059;SHT31;25763;49.972;8.568;2023-04-20T02:00:10;5.62;64.29
40059;SHT31;25763;49.972;8.568;2023-04-20T02:02:36;5.62;64.39
40059;SHT31;25763;49.972;8.568;2023-04-20T02:05:01;5.70;63.93
40059;SHT31;25763;49.972;8.568;2023-04-20T02:07:27;5.77;63.94
40059;SHT31;25763;49.972;8.568;2023-04-20T02:09:52;5.69;63.96
40059;SHT31;25763;49.972;8.568;2023-04-20T02:12:17;5.75;64.65
40059;SHT31;25763;49.972;8.568;2023-04-20T02:14:43;5.77;64.38
40059;SHT31;25763;49.972;8.568;2023-04-20T02:17:08;5.67;63.83
40059;SHT31;25763;49.972;8.568;2023-04-20T02:19:34;5.53;64.20
40059;SHT31;25763;49.972;8.568;2023-04-20T02:22:00;5.56;64.04
40059;SHT31;25763;49.972;8.568;2023-04-20T02:24:25;5.48;64.50
40059;SHT31;25763;49.972;8.568;2023-04-20T02:26:51;5.63;64.63
40059;SHT31;25763;49.972;8.568;2023-04-20T02:29:16;5.70;65.05
40059;SHT31;25763;49.972;8.568;2023-04-20T02:31:41;5.66;64.19
40059;SHT31;25763;49.972;8.568;2023-04-20T02:34:07;5.51;64.30
40059;SHT31;25763;49.972;8.568;2023-04-20T02:36:34;5.50;64.44
40059;SHT31;25763;49.972;8.568;2023-04-20T02:38:59;5.42;64.71
40059;SHT31;25763;49.972;8.568;2023-04-20T02:41:25;5.32;65.19
40059;SHT31;25763;49.972;8.568;2023-04-20T02:43:50;5.16;65.34
40059;SHT31;25763;49.972;8.568;2023-04-20T02:46:16;4.94;65.70
40059;SHT31;25763;49.972;8.568;2023-04-20T02:48:42;4.87;66.13
40059;SHT31;25763;49.972;8.568;2023-04-20T02:51:07;4.84;66.15
40059;SHT31;25763;49.972;8.568;2023-04-20T02:53:33;5.03;67.03
40059;SHT31;25763;49.972;8.568;2023-04-20T02:55:59;5.18;66.48
40059;SHT31;25763;49.972;8.568;2023-04-20T02:58:24;4.95;67.11
40059;SHT31;25763;49.972;8.568;2023-04-20T03:00:50;4.90;67.05
40059;SHT31;25763;49.972;8.568;2023-04-20T03:03:16;4.83;67.67
40059;SHT31;25763;49.972;8.568;2023-04-20T03:05:42;4.72;68.21
40059;SHT31;25763;49.972;8.568;2023-04-20T03:08:08;4.81;67.67
40059;SHT31;25763;49.972;8.568;2023-04-20T03:10:33;4.68;68.58
40059;SHT31;25763;49.972;8.568;2023-04-20T03:12:59;4.69;68.72
40059;SHT31;25763;49.972;8.568;2023-04-20T03:15:24;4.79;68.62
40059;SHT31;25763;49.972;8.568;2023-04-20T03:17:50;4.94;68.00
40059;SHT31;25763;49.972;8.568;2023-04-20T03:20:15;5.08;67.59
40059;SHT31;25763;49.972;8.568;2023-04-20T03:22:41;5.16;67.51
40059;SHT31;25763;49.972;8.568;2023-04-20T03:25:06;5.18;67.71
40059;SHT31;25763;49.972;8.568;2023-04-20T03:27:33;5.16;67.64
40059;SHT31;25763;49.972;8.568;2023-04-20T03:29:58;5.25;67.49
40059;SHT31;25763;49.972;8.568;2023-04-20T03:32:24;5.15;68.65
40059;SHT31;25763;49.972;8.568;2023-04-20T03:34:50;5.07;69.26
40059;SHT31;25763;49.972;8.568;2023-04-20T03:37:16;5.11;69.43
40059;SHT31;25763;49.972;8.568;2023-04-20T03:39:41;5.18;69.05
40059;SHT31;25763;49.972;8.568;2023-04-20T03:42:07;5.12;70.11
40059;SHT31;25763;49.972;8.568;2023-04-20T03:44:32;5.12;70.59
40059;SHT31;25763;49.972;8.568;2023-04-20T03:46:57;5.05;71.06
40059;SHT31;25763;49.972;8.568;2023-04-20T03:49:23;5.03;71.57
40059;SHT31;25763;49.972;8.568;2023-04-20T03:51:49;5.03;71.86
40059;SHT31;25763;49.972;8.568;2023-04-20T03:54:15;5.03;72.00
40059;SHT31;25763;49.972;8.568;2023-04-20T03:56:40;5.05;72.19
40059;SHT31;25763;49.972;8.568;2023-04-20T03:59:05;5.07;72.47
40059;SHT31;25763;49.972;8.568;2023-04-20T04:01:31;5.16;72.20
40059;SHT31;25763;49.972;8.568;2023-04-20T04:03:56;5.32;72.03
40059;SHT31;25763;49.972;8.568;2023-04-20T04:06:21;5.46;71.89
40059;SHT31;25763;49.972;8.568;2023-04-20T04:08:47;5.47;72.06
40059;SHT31;25763;49.972;8.568;2023-04-20T04:11:12;5.57;72.06
40059;SHT31;25763;49.972;8.568;2023-04-20T04:13:37;5.62;72.13
40059;SHT31;25763;49.972;8.568;2023-04-20T04:16:03;5.64;72.58
40059;SHT31;25763;49.972;8.568;2023-04-20T04:18:30;5.71;72.90
40059;SHT31;25763;49.972;8.568;2023-04-20T04:20:57;5.71;74.01
40059;SHT31;25763;49.972;8.568;2023-04-20T04:23:23;5.77;74.38
40059;SHT31;25763;49.972;8.568;2023-04-20T04:25:48;5.74;74.93
40059;SHT31;25763;49.972;8.568;2023-04-20T04:28:14;5.82;74.89
40059;SHT31;25763;49.972;8.568;2023-04-20T04:30:41;5.80;75.47
40059;SHT31;25763;49.972;8.568;2023-04-20T04:33:06;5.81;75.63
40059;SHT31;25763;49.972;8.568;2023-04-20T04:35:34;5.91;75.42
40059;SHT31;25763;49.972;8.568;2023-04-20T04:37:59;5.85;75.83
40059;SHT31;25763;49.972;8.568;2023-04-20T04:40:25;5.98;75.58
40059;SHT31;25763;49.972;8.568;2023-04-20T04:42:50;5.92;76.18
40059;SHT31;25763;49.972;8.568;2023-04-20T04:45:17;5.87;76.54
40059;SHT31;25763;49.972;8.568;2023-04-20T04:47:42;5.92;76.43
40059;SHT31;25763;49.972;8.568;2023-04-20T04:50:08;5.85;76.82
40059;SHT31;25763;49.972;8.568;2023-04-20T04:52:35;5.92;76.49
40059;SHT31;25763;49.972;8.568;2023-04-20T04:55:01;6.02;76.75
40059;SHT31;25763;49.972;8.568;2023-04-20T04:57:27;5.91;76.91
40059;SHT31;25763;49.972;8.568;2023-04-20T04:59:52;5.89;77.01
40059;SHT31;25763;49.972;8.568;2023-04-20T05:02:18;5.97;76.86
40059;SHT31;25763;49.972;8.568;2023-04-20T05:04:44;6.16;75.99
40059;SHT31;25763;49.972;8.568;2023-04-20T05:07:09;5.97;76.91
40059;SHT31;25763;49.972;8.568;2023-04-20T05:09:35;6.12;76.63
40059;SHT31;25763;49.972;8.568;2023-04-20T05:12:01;6.19;76.10
40059;SHT31;25763;49.972;8.568;2023-04-20T05:14:29;6.20;76.28
40059;SHT31;25763;49.972;8.568;2023-04-20T05:16:55;6.38;75.74
40059;SHT31;25763;49.972;8.568;2023-04-20T05:19:20;6.30;76.06
40059;SHT31;25763;49.972;8.568;2023-04-20T05:21:46;6.23;76.35
40059;SHT31;25763;49.972;8.568;2023-04-20T05:24:11;6.40;76.14
40059;SHT31;25763;49.972;8.568;2023-04-20T05:26:36;6.37;76.17
40059;SHT31;25763;49.972;8.568;2023-04-20T05:29:02;6.33;76.24
40059;SHT31;25763;49.972;8.568;2023-04-20T05:31:27;6.50;76.04
40059;SHT31;25763;49.972;8.568;2023-04-20T05:33:53;6.48;76.08
40059;SHT31;25763;49.972;8.568;2023-04-20T05:36:18;6.68;75.53
40059;SHT31;25763;49.972;8.568;2023-04-20T05:38:44;6.58;75.76
40059;SHT31;25763;49.972;8.568;2023-04-20T05:41:09;6.63;75.71
40059;SHT31;25763;49.972;8.568;2023-04-20T05:43:35;6.81;75.19
40059;SHT31;25763;49.972;8.568;2023-04-20T05:46:00;6.55;75.71
40059;SHT31;25763;49.972;8.568;2023-04-20T05:48:25;6.57;76.01
40059;SHT31;25763;49.972;8.568;2023-04-20T05:50:52;6.44;76.13
40059;SHT31;25763;49.972;8.568;2023-04-20T05:53:17;6.52;76.43
40059;SHT31;25763;49.972;8.568;2023-04-20T05:55:43;6.64;75.97
40059;SHT31;25763;49.972;8.568;2023-04-20T05:58:08;6.68;75.94
40059;SHT31;25763;49.972;8.568;2023-04-20T06:00:34;6.74;75.84
40059;SHT31;25763;49.972;8.568;2023-04-20T06:02:59;6.68;76.08
40059;SHT31;25763;49.972;8.568;2023-04-20T06:05:25;6.82;75.46
40059;SHT31;25763;49.972;8.568;2023-04-20T06:07:50;6.64;75.88
40059;SHT31;25763;49.972;8.568;2023-04-20T06:10:16;6.67;76.06
40059;SHT31;25763;49.972;8.568;2023-04-20T06:12:41;6.86;75.70
40059;SHT31;25763;49.972;8.568;2023-04-20T06:15:07;7.01;75.07
40059;SHT31;25763;49.972;8.568;2023-04-20T06:17:35;6.89;75.29
40059;SHT31;25763;49.972;8.568;2023-04-20T06:20:01;7.01;75.09
40059;SHT31;25763;49.972;8.568;2023-04-20T06:22:28;6.85;74.97
40059;SHT31;25763;49.972;8.568;2023-04-20T06:24:53;6.63;76.13
40059;SHT31;25763;49.972;8.568;2023-04-20T06:27:18;6.69;75.97
40059;SHT31;25763;49.972;8.568;2023-04-20T06:29:44;6.75;75.90
40059;SHT31;25763;49.972;8.568;2023-04-20T06:32:09;6.97;75.25
40059;SHT31;25763;49.972;8.568;2023-04-20T06:34:34;7.17;74.78
40059;SHT31;25763;49.972;8.568;2023-04-20T06:37:00;7.06;74.83
40059;SHT31;25763;49.972;8.568;2023-04-20T06:39:25;6.64;75.82
40059;SHT31;25763;49.972;8.568;2023-04-20T06:41:50;6.67;76.15
40059;SHT31;25763;49.972;8.568;2023-04-20T06:44:16;6.68;76.26
40059;SHT31;25763;49.972;8.568;2023-04-20T06:46:41;6.61;76.12
40059;SHT31;25763;49.972;8.568;2023-04-20T06:49:07;6.67;76.45
40059;SHT31;25763;49.972;8.568;2023-04-20T06:51:32;6.93;76.08
40059;SHT31;25763;49.972;8.568;2023-04-20T06:53:58;6.91;76.00
40059;SHT31;25763;49.972;8.568;2023-04-20T06:56:24;6.64;76.29
40059;SHT31;25763;49.972;8.568;2023-04-20T06:58:49;6.67;76.49
40059;SHT31;25763;49.972;8.568;2023-04-20T07:01:15;6.42;76.77
40059;SHT31;25763;49.972;8.568;2023-04-20T07:03:40;6.44;76.98
40059;SHT31;25763;49.972;8.568;2023-04-20T07:06:06;6.45;77.04
40059;SHT31;25763;49.972;8.568;2023-04-20T07:08:32;6.57;76.73
40059;SHT31;25763;49.972;8.568;2023-04-20T07:10:57;6.51;76.91
40059;SHT31;25763;49.972;8.568;2023-04-20T07:13:23;6.57;76.86
40059;SHT31;25763;49.972;8.568;2023-04-20T07:15:48;6.71;76.56
40059;SHT31;25763;49.972;8.568;2023-04-20T07:18:14;6.82;76.47
40059;SHT31;25763;49.972;8.568;2023-04-20T07:20:39;6.91;76.23
40059;SHT31;25763;49.972;8.568;2023-04-20T07:23:05;6.96;75.98
40059;SHT31;25763;49.972;8.568;2023-04-20T07:25:30;7.14;75.54
40059;SHT31;25763;49.972;8.568;2023-04-20T07:27:57;6.96;75.68
40059;SHT31;25763;49.972;8.568;2023-04-20T07:30:22;6.99;75.91
40059;SHT31;25763;49.972;8.568;2023-04-20T07:32:48;6.91;75.44
40059;SHT31;25763;49.972;8.568;2023-04-20T07:35:13;6.82;76.28
40059;SHT31;25763;49.972;8.568;2023-04-20T07:37:39;7.06;75.38
40059;SHT31;25763;49.972;8.568;2023-04-20T07:40:05;7.23;74.62
40059;SHT31;25763;49.972;8.568;2023-04-20T07:42:31;7.01;74.95
40059;SHT31;25763;49.972;8.568;2023-04-20T07:44:58;7.00;75.16
40059;SHT31;25763;49.972;8.568;2023-04-20T07:47:23;7.24;74.84
40059;SHT31;25763;49.972;8.568;2023-04-20T07:49:48;7.38;74.35
40059;SHT31;25763;49.972;8.568;2023-04-20T07:52:14;7.46;73.56
40059;SHT31;25763;49.972;8.568;2023-04-20T07:54:39;7.58;72.97
40059;SHT31;25763;49.972;8.568;2023-04-20T07:57:04;7.87;72.17
40059;SHT31;25763;49.972;8.568;2023-04-20T07:59:30;8.01;71.96
40059;SHT31;25763;49.972;8.568;2023-04-20T08:01:59;8.22;70.86
40059;SHT31;25763;49.972;8.568;2023-04-20T08:04:25;8.14;70.89
40059;SHT31;25763;49.972;8.568;2023-04-20T08:06:51;8.45;70.37
40059;SHT31;25763;49.972;8.568;2023-04-20T08:09:16;8.61;69.67
40059;SHT31;25763;49.972;8.568;2023-04-20T08:11:42;8.61;68.60
40059;SHT31;25763;49.972;8.568;2023-04-20T08:14:13;8.74;69.53
40059;SHT31;25763;49.972;8.568;2023-04-20T08:16:39;8.81;67.60
40059;SHT31;25763;49.972;8.568;2023-04-20T08:19:04;8.92;68.42
40059;SHT31;25763;49.972;8.568;2023-04-20T08:21:38;8.77;67.99
40059;SHT31;25763;49.972;8.568;2023-04-20T08:24:05;8.74;67.70
40059;SHT31;25763;49.972;8.568;2023-04-20T08:26:30;9.02;67.95
40059;SHT31;25763;49.972;8.568;2023-04-20T08:28:56;9.62;66.47
40059;SHT31;25763;49.972;8.568;2023-04-20T08:31:22;9.37;64.91
40059;SHT31;25763;49.972;8.568;2023-04-20T08:33:47;9.44;65.38
40059;SHT31;25763;49.972;8.568;2023-04-20T08:36:12;9.06;65.58
40059;SHT31;25763;49.972;8.568;2023-04-20T08:38:38;9.08;65.75
40059;SHT31;25763;49.972;8.568;2023-04-20T08:41:03;9.52;65.40
40059;SHT31;25763;49.972;8.568;2023-04-20T08:43:28;9.39;64.72
40059;SHT31;25763;49.972;8.568;2023-04-20T08:45:58;9.50;64.63
40059;SHT31;25763;49.972;8.568;2023-04-20T08:48:25;9.50;64.92
40059;SHT31;25763;49.972;8.568;2023-04-20T08:50:53;9.69;65.00
40059;SHT31;25763;49.972;8.568;2023-04-20T08:53:19;9.98;63.41
40059;SHT31;25763;49.972;8.568;2023-04-20T08:55:44;10.13;63.28
40059;SHT31;25763;49.972;8.568;2023-04-20T08:58:10;10.34;63.05
40059;SHT31;25763;49.972;8.568;2023-04-20T09:00:45;10.48;62.41
40059;SHT31;25763;49.972;8.568;2023-04-20T09:03:10;11.11;61.57
40059;SHT31;25763;49.972;8.568;2023-04-20T09:05:36;10.93;61.38
40059;SHT31;25763;49.972;8.568;2023-04-20T09:08:04;10.51;61.96
40059;SHT31;25763;49.972;8.568;2023-04-20T09:10:41;10.99;60.69
40059;SHT31;25763;49.972;8.568;2023-04-20T09:13:07;10.76;60.76
40059;SHT31;25763;49.972;8.568;2023-04-20T09:15:32;10.65;60.96
40059;SHT31;25763;49.972;8.568;2023-04-20T09:17:57;10.49;62.65
40059;SHT31;25763;49.972;8.568;2023-04-20T09:20:27;10.69;62.68
40059;SHT31;25763;49.972;8.568;2023-04-20T09:22:53;10.67;61.74
40059;SHT31;25763;49.972;8.568;2023-04-20T09:25:19;11.38;60.57
40059;SHT31;25763;49.972;8.568;2023-04-20T09:27:59;11.71;59.35
40059;SHT31;25763;49.972;8.568;2023-04-20T09:30:35;11.86;57.77
40059;SHT31;25763;49.972;8.568;2023-04-20T09:33:01;12.64;57.28
40059;SHT31;25763;49.972;8.568;2023-04-20T09:35:27;13.53;56.62
40059;SHT31;25763;49.972;8.568;2023-04-20T09:37:52;13.68;53.77
40059;SHT31;25763;49.972;8.568;2023-04-20T09:40:18;13.27;55.06
40059;SHT31;25763;49.972;8.568;2023-04-20T09:42:47;12.82;54.64
40059;SHT31;25763;49.972;8.568;2023-04-20T09:45:13;12.78;55.72
40059;SHT31;25763;49.972;8.568;2023-04-20T09:47:40;12.17;55.40
40059;SHT31;25763;49.972;8.568;2023-04-20T09:50:09;12.80;56.80
40059;SHT31;25763;49.972;8.568;2023-04-20T09:52:36;13.19;55.26
40059;SHT31;25763;49.972;8.568;2023-04-20T09:55:03;13.24;54.96
40059;SHT31;25763;49.972;8.568;2023-04-20T09:57:30;11.81;54.74
40059;SHT31;25763;49.972;8.568;2023-04-20T09:59:57;11.90;55.78
40059;SHT31;25763;49.972;8.568;2023-04-20T10:02:24;12.45;56.14
40059;SHT31;25763;49.972;8.568;2023-04-20T10:04:58;12.81;54.44
40059;SHT31;25763;49.972;8.568;2023-04-20T10:07:27;13.33;54.12
40059;SHT31;25763;49.972;8.568;2023-04-20T10:10:13;13.43;52.95
40059;SHT31;25763;49.972;8.568;2023-04-20T10:12:47;13.39;51.54
40059;SHT31;25763;49.972;8.568;2023-04-20T10:15:13;12.57;53.43
40059;SHT31;25763;49.972;8.568;2023-04-20T10:17:38;13.11;52.68
40059;SHT31;25763;49.972;8.568;2023-04-20T10:20:04;13.24;52.06
40059;SHT31;25763;49.972;8.568;2023-04-20T10:22:41;12.39;52.92
40059;SHT31;25763;49.972;8.568;2023-04-20T10:25:18;12.60;53.31
40059;SHT31;25763;49.972;8.568;2023-04-20T10:28:01;12.49;54.04
40059;SHT31;25763;49.972;8.568;2023-04-20T10:30:30;12.91;52.26
40059;SHT31;25763;49.972;8.568;2023-04-20T10:33:10;12.68;50.66
40059;SHT31;25763;49.972;8.568;2023-04-20T10:35:40;12.57;50.54
40059;SHT31;25763;49.972;8.568;2023-04-20T10:38:07;12.25;50.49
40059;SHT31;25763;49.972;8.568;2023-04-20T10:40:32;12.38;50.84
40059;SHT31;25763;49.972;8.568;2023-04-20T10:42:57;13.30;50.63
40059;SHT31;25763;49.972;8.568;2023-04-20T10:45:36;13.12;48.69
40059;SHT31;25763;49.972;8.568;2023-04-20T10:48:09;12.67;50.66
40059;SHT31;25763;49.972;8.568;2023-04-20T10:50:35;12.43;51.19
40059;SHT31;25763;49.972;8.568;2023-04-20T10:53:01;12.53;51.17
40059;SHT31;25763;49.972;8.568;2023-04-20T10:55:28;13.15;49.51
40059;SHT31;25763;49.972;8.568;2023-04-20T10:57:53;12.95;49.83
40059;SHT31;25763;49.972;8.568;2023-04-20T11:00:21;12.78;50.00
40059;SHT31;25763;49.972;8.568;2023-04-20T11:02:51;12.30;50.21
40059;SHT31;25763;49.972;8.568;2023-04-20T11:05:18;12.49;50.02
40059;SHT31;25763;49.972;8.568;2023-04-20T11:07:53;13.27;49.13
40059;SHT31;25763;49.972;8.568;2023-04-20T11:10:19;12.70;49.15
40059;SHT31;25763;49.972;8.568;2023-04-20T11:12:46;12.87;49.91
40059;SHT31;25763;49.972;8.568;2023-04-20T11:15:11;13.54;47.15
40059;SHT31;25763;49.972;8.568;2023-04-20T11:17:38;14.28;45.41
40059;SHT31;25763;49.972;8.568;2023-04-20T11:20:08;13.78;46.34
40059;SHT31;25763;49.972;8.568;2023-04-20T11:22:35;13.70;47.06
40059;SHT31;25763;49.972;8.568;2023-04-20T11:25:03;14.09;47.29
40059;SHT31;25763;49.972;8.568;2023-04-20T11:27:32;14.06;47.02
40059;SHT31;25763;49.972;8.568;2023-04-20T11:29:58;14.47;45.60
40059;SHT31;25763;49.972;8.568;2023-04-20T11:32:25;15.06;44.35
40059;SHT31;25763;49.972;8.568;2023-04-20T11:35:17;15.77;42.53
40059;SHT31;25763;49.972;8.568;2023-04-20T11:37:47;15.74;42.61
40059;SHT31;25763;49.972;8.568;2023-04-20T11:40:15;15.06;44.47
40059;SHT31;25763;49.972;8.568;2023-04-20T11:42:41;14.38;44.01
40059;SHT31;25763;49.972;8.568;2023-04-20T11:45:07;13.89;45.03
40059;SHT31;25763;49.972;8.568;2023-04-20T11:47:32;14.55;44.16
40059;SHT31;25763;49.972;8.568;2023-04-20T11:49:58;14.18;42.71
40059;SHT31;25763;49.972;8.568;2023-04-20T11:52:23;13.44;44.98
40059;SHT31;25763;49.972;8.568;2023-04-20T11:54:48;13.20;45.83
40059;SHT31;25763;49.972;8.568;2023-04-20T11:57:14;13.30;45.33
40059;SHT31;25763;49.972;8.568;2023-04-20T11:59:40;13.30;44.99
40059;SHT31;25763;49.972;8.568;2023-04-20T12:02:08;14.21;42.66
40059;SHT31;25763;49.972;8.568;2023-04-20T12:04:33;14.26;42.38
40059;SHT31;25763;49.972;8.568;2023-04-20T12:06:59;14.51;42.47
40059;SHT31;25763;49.972;8.568;2023-04-20T12:09:26;14.58;42.50
40059;SHT31;25763;49.972;8.568;2023-04-20T12:11:52;14.86;41.34
40059;SHT31;25763;49.972;8.568;2023-04-20T12:14:17;14.80;42.18
40059;SHT31;25763;49.972;8.568;2023-04-20T12:16:43;14.10;42.73
40059;SHT31;25763;49.972;8.568;2023-04-20T12:19:08;13.78;43.51
40059;SHT31;25763;49.972;8.568;2023-04-20T12:21:34;13.51;44.33
40059;SHT31;25763;49.972;8.568;2023-04-20T12:23:59;13.53;42.96
40059;SHT31;25763;49.972;8.568;2023-04-20T12:26:25;13.64;43.90
40059;SHT31;25763;49.972;8.568;2023-04-20T12:28:51;13.95;42.81
40059;SHT31;25763;49.972;8.568;2023-04-20T12:31:16;14.40;40.52
40059;SHT31;25763;49.972;8.568;2023-04-20T12:33:41;14.13;41.23
40059;SHT31;25763;49.972;8.568;2023-04-20T12:36:07;13.77;42.01
40059;SHT31;25763;49.972;8.568;2023-04-20T12:38:33;13.79;42.88
40059;SHT31;25763;49.972;8.568;2023-04-20T12:40:58;13.37;44.47
40059;SHT31;25763;49.972;8.568;2023-04-20T12:43:24;13.24;44.04
40059;SHT31;25763;49.972;8.568;2023-04-20T12:45:49;13.19;45.31
40059;SHT31;25763;49.972;8.568;2023-04-20T12:48:15;13.19;45.45
40059;SHT31;25763;49.972;8.568;2023-04-20T12:50:40;13.73;44.94
40059;SHT31;25763;49.972;8.568;2023-04-20T12:53:06;14.73;44.51
40059;SHT31;25763;49.972;8.568;2023-04-20T12:55:32;14.93;39.60
40059;SHT31;25763;49.972;8.568;2023-04-20T12:57:57;15.11;41.32
40059;SHT31;25763;49.972;8.568;2023-04-20T13:00:23;15.48;41.19
40059;SHT31;25763;49.972;8.568;2023-04-20T13:02:48;14.40;41.58
40059;SHT31;25763;49.972;8.568;2023-04-20T13:05:14;13.86;43.07
40059;SHT31;25763;49.972;8.568;2023-04-20T13:07:40;13.98;43.04
40059;SHT31;25763;49.972;8.568;2023-04-20T13:10:05;13.73;43.48
40059;SHT31;25763;49.972;8.568;2023-04-20T13:12:31;13.27;45.04
40059;SHT31;25763;49.972;8.568;2023-04-20T13:14:56;12.94;46.04
40059;SHT31;25763;49.972;8.568;2023-04-20T13:17:22;12.82;47.49
40059;SHT31;25763;49.972;8.568;2023-04-20T13:19:48;12.70;50.45
40059;SHT31;25763;49.972;8.568;2023-04-20T13:22:14;12.39;51.34
40059;SHT31;25763;49.972;8.568;2023-04-20T13:24:39;12.18;52.29
40059;SHT31;25763;49.972;8.568;2023-04-20T13:27:05;11.81;52.58
40059;SHT31;25763;49.972;8.568;2023-04-20T13:29:30;11.84;53.76
40059;SHT31;25763;49.972;8.568;2023-04-20T13:31:56;11.53;54.93
40059;SHT31;25763;49.972;8.568;2023-04-20T13:34:21;11.46;55.87
40059;SHT31;25763;49.972;8.568;2023-04-20T13:36:47;11.32;55.91
40059;SHT31;25763;49.972;8.568;2023-04-20T13:39:13;11.22;53.44
40059;SHT31;25763;49.972;8.568;2023-04-20T13:41:38;11.34;53.04
40059;SHT31;25763;49.972;8.568;2023-04-20T13:44:04;11.42;50.84
40059;SHT31;25763;49.972;8.568;2023-04-20T13:46:30;11.70;51.73
40059;SHT31;25763;49.972;8.568;2023-04-20T13:48:55;11.91;50.02
40059;SHT31;25763;49.972;8.568;2023-04-20T13:51:20;11.88;49.41
40059;SHT31;25763;49.972;8.568;2023-04-20T13:53:46;12.05;49.91
40059;SHT31;25763;49.972;8.568;2023-04-20T13:56:16;12.14;48.86
40059;SHT31;25763;49.972;8.568;2023-04-20T13:58:42;12.32;48.54
40059;SHT31;25763;49.972;8.568;2023-04-20T14:01:12;12.59;48.72
40059;SHT31;25763;49.972;8.568;2023-04-20T14:03:41;12.49;49.13
40059;SHT31;25763;49.972;8.568;2023-04-20T14:06:07;12.15;49.53
40059;SHT31;25763;49.972;8.568;2023-04-20T14:08:32;12.05;51.38
40059;SHT31;25763;49.972;8.568;2023-04-20T14:10:58;11.87;52.43
40059;SHT31;25763;49.972;8.568;2023-04-20T14:13:24;11.95;52.54
40059;SHT31;25763;49.972;8.568;2023-04-20T14:15:49;12.09;54.18
40059;SHT31;25763;49.972;8.568;2023-04-20T14:18:15;11.99;54.11
40059;SHT31;25763;49.972;8.568;2023-04-20T14:20:41;11.93;55.25
40059;SHT31;25763;49.972;8.568;2023-04-20T14:23:06;11.95;54.54
40059;SHT31;25763;49.972;8.568;2023-04-20T14:25:31;12.01;53.31
40059;SHT31;25763;49.972;8.568;2023-04-20T14:27:57;12.18;54.35
40059;SHT31;25763;49.972;8.568;2023-04-20T14:30:23;12.06;52.35
40059;SHT31;25763;49.972;8.568;2023-04-20T14:32:56;12.15;52.07
40059;SHT31;25763;49.972;8.568;2023-04-20T14:35:22;12.29;53.23
40059;SHT31;25763;49.972;8.568;2023-04-20T14:37:48;12.26;52.68
40059;SHT31;25763;49.972;8.568;2023-04-20T14:40:13;12.11;52.31
40059;SHT31;25763;49.972;8.568;2023-04-20T14:42:40;11.90;53.09
40059;SHT31;25763;49.972;8.568;2023-04-20T14:45:06;11.83;52.59
40059;SHT31;25763;49.972;8.568;2023-04-20T14:47:31;11.59;52.16
40059;SHT31;25763;49.972;8.568;2023-04-20T14:49:57;11.63;52.29
40059;SHT31;25763;49.972;8.568;2023-04-20T14:52:22;11.67;51.77
40059;SHT31;25763;49.972;8.568;2023-04-20T14:54:48;11.74;51.60
40059;SHT31;25763;49.972;8.568;2023-04-20T14:57:13;11.74;51.17
40059;SHT31;25763;49.972;8.568;2023-04-20T14:59:38;11.76;50.39
40059;SHT31;25763;49.972;8.568;2023-04-20T15:02:05;11.79;50.17
40059;SHT31;25763;49.972;8.568;2023-04-20T15:04:31;11.74;49.91
40059;SHT31;25763;49.972;8.568;2023-04-20T15:06:56;11.65;49.66
40059;SHT31;25763;49.972;8.568;2023-04-20T15:09:22;11.70;50.03
40059;SHT31;25763;49.972;8.568;2023-04-20T15:11:47;11.61;50.26
40059;SHT31;25763;49.972;8.568;2023-04-20T15:14:13;11.73;49.64
40059;SHT31;25763;49.972;8.568;2023-04-20T15:16:38;11.71;49.65
40059;SHT31;25763;49.972;8.568;2023-04-20T15:19:03;11.66;50.05
40059;SHT31;25763;49.972;8.568;2023-04-20T15:21:29;11.70;50.39
40059;SHT31;25763;49.972;8.568;2023-04-20T15:23:54;11.69;50.75
40059;SHT31;25763;49.972;8.568;2023-04-20T15:26:19;11.76;49.77
40059;SHT31;25763;49.972;8.568;2023-04-20T15:28:45;11.69;49.40
40059;SHT31;25763;49.972;8.568;2023-04-20T15:31:15;11.70;49.83
40059;SHT31;25763;49.972;8.568;2023-04-20T15:33:41;11.71;49.75